createdAt,value
2022-08-21T00:00:26.613Z,80.86
2022-08-21T00:03:09.128Z,80.95
2022-08-21T00:05:44.848Z,81.18
2022-08-21T00:08:13.491Z,81.24
2022-08-21T00:10:43.623Z,81.25
2022-08-21T00:13:13.088Z,81.33
2022-08-21T00:15:48.466Z,81.33
2022-08-21T00:18:17.239Z,81.48
2022-08-21T00:20:47.039Z,81.52
2022-08-21T00:23:16.215Z,81.60
2022-08-21T00:25:48.670Z,81.63
2022-08-21T00:28:17.648Z,81.75
2022-08-21T00:30:47.168Z,81.78
2022-08-21T00:33:15.959Z,81.86
2022-08-21T00:35:45.352Z,81.98
2022-08-21T00:38:13.925Z,82.12
2022-08-21T00:40:54.928Z,82.11
2022-08-21T00:43:30.665Z,82.18
2022-08-21T00:46:01.966Z,82.33
2022-08-21T00:48:30.113Z,82.33
2022-08-21T00:51:14.231Z,82.31
2022-08-21T00:53:48.087Z,82.33
2022-08-21T00:56:24.812Z,82.34
2022-08-21T00:58:58.280Z,82.33
2022-08-21T01:01:27.173Z,82.40
2022-08-21T01:03:55.468Z,82.34
2022-08-21T01:06:25.356Z,82.51
2022-08-21T01:08:53.469Z,82.58
2022-08-21T01:11:21.433Z,82.60
2022-08-21T01:13:50.382Z,82.57
2022-08-21T01:16:20.750Z,82.38
2022-08-21T01:18:49.970Z,82.30
2022-08-21T01:21:27.842Z,82.29
2022-08-21T01:23:58.057Z,82.35
2022-08-21T01:26:35.592Z,82.44
2022-08-21T01:29:44.773Z,82.63
2022-08-21T01:32:16.979Z,82.79
2022-08-21T01:34:47.877Z,82.91
2022-08-21T01:37:17.910Z,83.01
2022-08-21T01:39:47.586Z,82.98
2022-08-21T01:42:16.084Z,82.88
2022-08-21T01:44:45.028Z,82.75
2022-08-21T01:47:16.429Z,82.82
2022-08-21T01:49:46.595Z,82.80
2022-08-21T01:52:14.829Z,82.75
2022-08-21T01:54:43.039Z,82.72
2022-08-21T01:57:11.811Z,82.88
2022-08-21T01:59:40.622Z,82.78
2022-08-21T02:02:08.609Z,82.97
2022-08-21T02:04:36.618Z,83.11
2022-08-21T02:07:05.467Z,83.05
2022-08-21T02:09:36.451Z,83.02
2022-08-21T02:12:08.504Z,82.84
2022-08-21T02:14:36.679Z,82.79
2022-08-21T02:17:09.799Z,82.74
2022-08-21T02:19:40.654Z,82.74
2022-08-21T02:22:12.535Z,82.74
2022-08-21T02:24:54.712Z,82.72
2022-08-21T02:27:26.053Z,82.59
2022-08-21T02:29:57.860Z,82.97
2022-08-21T02:32:26.914Z,83.05
2022-08-21T02:34:55.407Z,83.21
2022-08-21T02:37:24.878Z,83.22
2022-08-21T02:39:53.319Z,83.24
2022-08-21T02:42:21.290Z,83.42
2022-08-21T02:44:49.365Z,83.15
2022-08-21T02:47:18.682Z,83.10
2022-08-21T02:49:46.927Z,83.33
2022-08-21T02:52:15.626Z,83.46
2022-08-21T02:54:43.832Z,83.35
2022-08-21T02:57:15.641Z,83.51
2022-08-21T02:59:43.765Z,83.55
2022-08-21T03:02:13.790Z,83.38
2022-08-21T03:04:46.405Z,82.98
2022-08-21T03:07:16.633Z,82.82
2022-08-21T03:09:55.148Z,82.79
2022-08-21T03:12:26.637Z,82.84
2022-08-21T03:14:58.946Z,82.79
2022-08-21T03:17:29.436Z,82.54
2022-08-21T03:19:58.756Z,82.45
2022-08-21T03:22:28.007Z,82.40
2022-08-21T03:24:59.811Z,82.41
2022-08-21T03:27:30.040Z,82.37
2022-08-21T03:29:58.912Z,82.57
2022-08-21T03:32:26.845Z,82.82
2022-08-21T03:34:54.748Z,83.09
2022-08-21T03:37:22.601Z,83.32
2022-08-21T03:39:50.504Z,83.60
2022-08-21T03:42:18.528Z,83.69
2022-08-21T03:44:46.495Z,83.84
2022-08-21T03:47:14.354Z,83.96
2022-08-21T03:49:42.451Z,83.99
2022-08-21T03:52:10.266Z,84.10
2022-08-21T03:54:38.038Z,84.09
2022-08-21T03:57:06.028Z,84.02
2022-08-21T03:59:33.851Z,84.06
2022-08-21T04:02:04.668Z,84.14
2022-08-21T04:04:33.139Z,84.31
2022-08-21T04:07:01.213Z,84.41
2022-08-21T04:09:29.438Z,84.76
2022-08-21T04:11:58.181Z,84.42
2022-08-21T04:14:26.341Z,84.34
2022-08-21T04:16:54.560Z,84.43
2022-08-21T04:19:22.484Z,84.65
2022-08-21T04:21:50.730Z,84.88
2022-08-21T04:24:20.492Z,85.00
2022-08-21T04:26:48.282Z,84.86
2022-08-21T04:29:16.252Z,84.93
2022-08-21T04:31:44.761Z,84.99
2022-08-21T04:34:13.459Z,85.03
2022-08-21T04:36:41.327Z,85.08
2022-08-21T04:39:10.109Z,85.19
2022-08-21T04:41:38.670Z,85.19
2022-08-21T04:44:07.763Z,85.26
2022-08-21T04:46:36.004Z,85.23
2022-08-21T04:49:03.893Z,85.29
2022-08-21T04:51:36.330Z,85.41
2022-08-21T04:54:12.397Z,85.49
2022-08-21T04:56:46.519Z,85.53
2022-08-21T04:59:19.327Z,85.68
2022-08-21T05:01:48.163Z,85.99
2022-08-21T05:04:20.089Z,86.06
2022-08-21T05:06:48.858Z,86.12
2022-08-21T05:09:19.635Z,86.15
2022-08-21T05:11:48.010Z,86.44
2022-08-21T05:14:17.069Z,86.43
2022-08-21T05:16:45.222Z,86.43
2022-08-21T05:19:13.620Z,86.67
2022-08-21T05:21:45.007Z,86.52
2022-08-21T05:24:13.177Z,86.52
2022-08-21T05:26:45.939Z,86.56
2022-08-21T05:29:16.762Z,86.62
2022-08-21T05:31:47.822Z,86.65
2022-08-21T05:34:20.146Z,86.64
2022-08-21T05:36:48.100Z,86.91
2022-08-21T05:39:16.088Z,86.99
2022-08-21T05:41:44.004Z,86.90
2022-08-21T05:44:11.804Z,86.15
2022-08-21T05:46:40.113Z,84.86
2022-08-21T05:49:08.052Z,83.92
2022-08-21T05:51:36.327Z,83.56
2022-08-21T05:54:04.413Z,83.64
2022-08-21T05:56:32.309Z,83.81
2022-08-21T05:59:00.206Z,84.03
2022-08-21T06:01:28.440Z,84.21
2022-08-21T06:03:59.738Z,84.41
2022-08-21T06:06:29.418Z,84.75
2022-08-21T06:08:57.248Z,84.87
2022-08-21T06:11:28.880Z,84.94
2022-08-21T06:13:57.823Z,85.07
2022-08-21T06:16:27.003Z,85.14
2022-08-21T06:18:57.523Z,85.12
2022-08-21T06:21:28.554Z,85.14
2022-08-21T06:23:56.697Z,84.96
2022-08-21T06:26:24.844Z,84.77
2022-08-21T06:28:52.728Z,84.59
2022-08-21T06:31:24.136Z,84.34
2022-08-21T06:33:53.084Z,84.20
2022-08-21T06:36:24.548Z,84.15
2022-08-21T06:38:52.420Z,83.86
2022-08-21T06:41:26.309Z,83.66
2022-08-21T06:43:56.600Z,83.50
2022-08-21T06:46:27.004Z,83.52
2022-08-21T06:48:55.806Z,83.46
2022-08-21T06:51:24.474Z,83.37
2022-08-21T06:53:54.235Z,83.24
2022-08-21T06:56:22.302Z,82.99
2022-08-21T06:58:50.226Z,82.89
2022-08-21T07:01:18.296Z,82.57
2022-08-21T07:03:47.024Z,82.69
2022-08-21T07:06:14.915Z,82.73
2022-08-21T07:08:42.868Z,82.85
2022-08-21T07:11:18.451Z,82.84
2022-08-21T07:13:46.698Z,83.13
2022-08-21T07:16:14.581Z,82.99
2022-08-21T07:18:42.522Z,82.73
2022-08-21T07:21:10.789Z,82.54
2022-08-21T07:23:46.104Z,82.47
2022-08-21T07:26:20.082Z,82.61
2022-08-21T07:28:51.414Z,82.92
2022-08-21T07:31:23.050Z,82.91
2022-08-21T07:33:54.707Z,82.50
2022-08-21T07:36:23.208Z,82.17
2022-08-21T07:38:52.873Z,81.92
2022-08-21T07:41:25.695Z,82.14
2022-08-21T07:43:53.777Z,82.31
2022-08-21T07:46:21.948Z,82.66
2022-08-21T07:48:49.831Z,82.61
2022-08-21T07:51:22.184Z,82.60
2022-08-21T07:53:52.113Z,82.73
2022-08-21T07:56:20.654Z,82.61
2022-08-21T07:58:49.241Z,82.54
2022-08-21T08:01:17.887Z,82.34
2022-08-21T08:03:46.260Z,82.42
2022-08-21T08:06:14.034Z,82.61
2022-08-21T08:08:42.953Z,82.76
2022-08-21T08:11:12.025Z,82.83
2022-08-21T08:13:46.818Z,82.82
2022-08-21T08:16:16.181Z,82.73
2022-08-21T08:18:45.440Z,82.58
2022-08-21T08:21:14.239Z,82.35
2022-08-21T08:23:42.192Z,82.44
2022-08-21T08:26:10.057Z,82.57
2022-08-21T08:28:40.625Z,82.86
2022-08-21T08:31:08.718Z,82.94
2022-08-21T08:33:36.664Z,83.03
2022-08-21T08:36:08.117Z,83.27
2022-08-21T08:38:36.258Z,83.14
2022-08-21T08:41:30.742Z,82.97
2022-08-21T08:44:05.969Z,82.85
2022-08-21T08:46:53.668Z,82.67
2022-08-21T08:49:38.089Z,82.63
2022-08-21T08:52:35.998Z,82.71
2022-08-21T08:55:41.172Z,82.81
2022-08-21T08:58:25.601Z,82.91
2022-08-21T09:00:56.144Z,83.05
2022-08-21T09:03:26.280Z,83.32
2022-08-21T09:06:06.517Z,83.19
2022-08-21T09:09:12.457Z,83.28
2022-08-21T09:11:50.495Z,83.33
2022-08-21T09:15:14.223Z,83.13
2022-08-21T09:18:16.017Z,83.30
2022-08-21T09:21:22.023Z,82.54
2022-08-21T09:24:11.858Z,82.14
2022-08-21T09:27:11.054Z,82.30
2022-08-21T09:29:53.854Z,82.26
2022-08-21T09:32:37.809Z,82.34
2022-08-21T09:35:12.812Z,82.51
2022-08-21T09:37:57.685Z,82.80
2022-08-21T09:40:42.876Z,82.96
2022-08-21T09:43:13.720Z,83.24
2022-08-21T09:45:43.859Z,83.44
2022-08-21T09:48:32.550Z,83.58
2022-08-21T09:51:13.692Z,83.72
2022-08-21T09:53:49.908Z,83.97
2022-08-21T09:56:49.174Z,84.15
2022-08-21T09:59:21.136Z,84.26
2022-08-21T10:01:52.363Z,84.37
2022-08-21T10:04:33.399Z,84.46
2022-08-21T10:07:08.990Z,84.59
2022-08-21T10:09:37.411Z,84.60
2022-08-21T10:12:05.370Z,84.92
2022-08-21T10:15:22.162Z,85.07
2022-08-21T10:18:27.655Z,85.17
2022-08-21T10:21:25.033Z,85.21
2022-08-21T10:24:31.042Z,85.16
2022-08-21T10:27:39.396Z,85.12
2022-08-21T10:30:28.392Z,85.26
2022-08-21T10:33:14.235Z,85.53
2022-08-21T10:36:00.192Z,85.61
2022-08-21T10:39:17.453Z,85.56
2022-08-21T10:42:14.177Z,85.63
2022-08-21T10:45:10.042Z,85.79
2022-08-21T10:47:52.945Z,85.65
2022-08-21T10:50:43.343Z,85.77
2022-08-21T10:53:20.169Z,85.85
2022-08-21T10:56:02.946Z,85.98
2022-08-21T10:58:58.602Z,86.16
2022-08-21T11:01:54.850Z,86.09
2022-08-21T11:04:46.281Z,85.97
2022-08-21T11:07:50.521Z,85.84
2022-08-21T11:10:26.110Z,85.75
2022-08-21T11:13:12.891Z,85.70
2022-08-21T11:16:03.799Z,85.52
2022-08-21T11:18:39.308Z,85.60
2022-08-21T11:21:25.630Z,85.73
2022-08-21T11:24:30.399Z,85.80
2022-08-21T11:27:34.426Z,85.88
2022-08-21T11:30:06.723Z,85.97
2022-08-21T11:33:05.664Z,85.91
2022-08-21T11:36:05.286Z,85.67
2022-08-21T11:39:09.201Z,85.70
2022-08-21T11:41:56.672Z,85.87
2022-08-21T11:45:12.930Z,86.02
2022-08-21T11:48:38.025Z,86.00
2022-08-21T11:51:30.221Z,85.89
2022-08-21T11:54:21.406Z,85.93
2022-08-21T11:57:41.750Z,86.04
2022-08-21T12:00:36.364Z,85.99
2022-08-21T12:03:29.522Z,85.89
2022-08-21T12:06:11.365Z,85.83
2022-08-21T12:08:43.016Z,85.89
2022-08-21T12:11:19.988Z,85.95
2022-08-21T12:14:07.168Z,85.81
2022-08-21T12:16:39.821Z,85.84
2022-08-21T12:19:26.328Z,85.84
2022-08-21T12:22:18.234Z,85.75
2022-08-21T12:24:51.099Z,85.60
2022-08-21T12:27:27.490Z,85.71
2022-08-21T12:30:05.459Z,85.55
2022-08-21T12:32:57.762Z,85.55
2022-08-21T12:35:37.663Z,85.33
2022-08-21T12:38:20.551Z,85.27
2022-08-21T12:41:16.150Z,85.14
2022-08-21T12:44:18.228Z,84.94
2022-08-21T12:46:59.715Z,84.73
2022-08-21T12:49:37.172Z,84.63
2022-08-21T12:52:49.964Z,84.52
2022-08-21T12:55:31.733Z,84.49
2022-08-21T12:58:03.775Z,84.47
2022-08-21T13:00:31.761Z,84.29
2022-08-21T13:03:00.693Z,84.19
2022-08-21T13:05:36.104Z,84.11
2022-08-21T13:08:07.302Z,84.18
2022-08-21T13:10:36.383Z,84.03
2022-08-21T13:13:28.140Z,84.12
2022-08-21T13:16:06.067Z,84.03
2022-08-21T13:19:03.171Z,83.99
2022-08-21T13:21:44.608Z,83.92
2022-08-21T13:24:41.155Z,84.01
2022-08-21T13:27:24.306Z,83.90
2022-08-21T13:30:34.919Z,83.88
2022-08-21T13:33:12.275Z,83.92
2022-08-21T13:35:50.694Z,83.75
2022-08-21T13:38:26.691Z,83.65
2022-08-21T13:41:26.923Z,83.71
2022-08-21T13:44:07.367Z,83.67
2022-08-21T13:46:38.087Z,83.61
2022-08-21T13:49:11.821Z,83.61
2022-08-21T13:51:52.764Z,83.57
2022-08-21T13:54:40.889Z,83.57
2022-08-21T13:57:25.389Z,83.48
2022-08-21T14:00:28.195Z,83.47
2022-08-21T14:03:06.359Z,83.48
2022-08-21T14:05:45.689Z,83.44
2022-08-21T14:08:37.184Z,83.35
2022-08-21T14:11:12.503Z,83.29
2022-08-21T14:14:06.505Z,83.25
2022-08-21T14:17:24.089Z,83.17
2022-08-21T14:19:56.003Z,83.19
2022-08-21T14:22:39.390Z,83.24
2022-08-21T14:25:18.661Z,83.09
2022-08-21T14:27:56.388Z,83.20
2022-08-21T14:30:41.227Z,83.17
2022-08-21T14:33:16.617Z,82.91
2022-08-21T14:35:46.236Z,82.27
2022-08-21T14:38:29.842Z,81.27
2022-08-21T14:41:28.721Z,80.92
2022-08-21T14:44:08.129Z,80.84
2022-08-21T14:46:56.012Z,80.90
2022-08-21T14:49:28.511Z,80.68
2022-08-21T14:51:58.862Z,80.63
2022-08-21T14:54:32.996Z,81.04
2022-08-21T14:57:10.082Z,81.43
2022-08-21T14:59:38.719Z,81.65
2022-08-21T15:02:15.137Z,81.85
2022-08-21T15:04:43.573Z,82.18
2022-08-21T15:07:11.496Z,81.78
2022-08-21T15:09:39.624Z,81.54
2022-08-21T15:12:08.201Z,81.09
2022-08-21T15:14:39.444Z,80.46
2022-08-21T15:17:10.141Z,79.34
2022-08-21T15:19:38.553Z,78.96
2022-08-21T15:22:06.549Z,78.79
2022-08-21T15:24:43.869Z,78.65
2022-08-21T15:27:19.919Z,78.51
2022-08-21T15:29:48.055Z,78.47
2022-08-21T15:32:17.713Z,78.32
2022-08-21T15:35:01.234Z,78.12
2022-08-21T15:37:29.130Z,77.90
2022-08-21T15:39:57.305Z,77.51
2022-08-21T15:42:27.879Z,77.40
2022-08-21T15:44:57.573Z,77.11
2022-08-21T15:47:35.212Z,77.10
2022-08-21T15:50:08.080Z,77.02
2022-08-21T15:52:38.628Z,77.22
2022-08-21T15:55:07.880Z,77.31
2022-08-21T15:57:37.390Z,77.61
2022-08-21T16:00:19.389Z,77.94
2022-08-21T16:02:54.178Z,78.44
2022-08-21T16:05:23.449Z,78.50
2022-08-21T16:07:52.710Z,78.37
2022-08-21T16:10:23.613Z,78.36
2022-08-21T16:13:00.899Z,78.27
2022-08-21T16:15:29.103Z,78.09
2022-08-21T16:17:57.563Z,78.02
2022-08-21T16:20:29.425Z,78.11
2022-08-21T16:22:58.897Z,78.24
2022-08-21T16:25:27.307Z,78.56
2022-08-21T16:28:01.758Z,78.93
2022-08-21T16:30:31.052Z,79.39
2022-08-21T16:33:03.604Z,79.75
2022-08-21T16:35:31.600Z,79.86
2022-08-21T16:37:59.957Z,80.07
2022-08-21T16:40:28.658Z,80.11
2022-08-21T16:42:56.918Z,80.21
2022-08-21T16:45:25.751Z,80.43
2022-08-21T16:47:55.625Z,80.57
2022-08-21T16:50:24.722Z,80.54
2022-08-21T16:52:53.346Z,80.57
2022-08-21T16:55:22.498Z,80.63
2022-08-21T16:57:50.511Z,80.72
2022-08-21T17:00:18.369Z,80.92
2022-08-21T17:02:51.156Z,80.99
2022-08-21T17:05:19.732Z,80.81
2022-08-21T17:07:47.785Z,80.88
2022-08-21T17:10:16.957Z,80.96
2022-08-21T17:12:51.484Z,81.01
2022-08-21T17:15:24.594Z,81.06
2022-08-21T17:17:52.905Z,80.96
2022-08-21T17:20:21.268Z,80.96
2022-08-21T17:22:49.697Z,81.05
2022-08-21T17:25:17.727Z,81.13
2022-08-21T17:27:48.527Z,81.08
2022-08-21T17:30:17.798Z,81.15
2022-08-21T17:32:47.411Z,81.13
2022-08-21T17:35:44.412Z,81.15
2022-08-21T17:38:14.838Z,81.23
2022-08-21T17:43:38.336Z,81.28
2022-08-21T17:46:09.147Z,81.16
2022-08-21T17:48:38.451Z,81.19
2022-08-21T17:51:18.505Z,81.24
2022-08-21T17:53:46.634Z,81.22
2022-08-21T17:56:16.290Z,81.24
2022-08-21T17:58:55.048Z,81.20
2022-08-21T18:01:26.463Z,81.26
2022-08-21T18:03:59.651Z,81.34
2022-08-21T18:06:28.022Z,81.20
2022-08-21T18:09:01.047Z,81.07
2022-08-21T18:11:30.860Z,81.06
2022-08-21T18:14:07.625Z,81.04
2022-08-21T18:16:38.655Z,81.00
2022-08-21T18:19:12.008Z,80.96
2022-08-21T18:21:40.130Z,80.91
2022-08-21T18:24:07.994Z,80.86
2022-08-21T18:26:38.309Z,80.64
2022-08-21T18:29:09.143Z,80.52
2022-08-21T18:31:38.970Z,79.98
2022-08-21T18:34:27.026Z,79.64
2022-08-21T18:36:55.516Z,79.35
2022-08-21T18:39:36.382Z,79.04
2022-08-21T18:42:11.791Z,79.07
2022-08-21T18:44:41.378Z,78.90
2022-08-21T18:47:37.300Z,78.93
2022-08-21T18:50:10.189Z,78.96
2022-08-21T18:52:41.835Z,79.12
2022-08-21T18:55:29.409Z,79.26
2022-08-21T18:57:58.091Z,79.40
2022-08-21T19:00:31.684Z,79.48
2022-08-21T19:03:00.838Z,79.29
2022-08-21T19:05:28.940Z,79.34
2022-08-21T19:07:57.453Z,79.25
2022-08-21T19:10:29.585Z,79.27
2022-08-21T19:12:59.695Z,79.13
2022-08-21T19:15:28.533Z,79.00
2022-08-21T19:17:59.016Z,79.04
2022-08-21T19:20:32.753Z,79.10
2022-08-21T19:23:02.472Z,79.01
2022-08-21T19:25:33.255Z,78.98
2022-08-21T19:28:10.751Z,79.04
2022-08-21T19:30:45.967Z,79.16
2022-08-21T19:33:23.677Z,79.15
2022-08-21T19:35:53.495Z,79.11
2022-08-21T19:38:22.095Z,79.05
2022-08-21T19:40:50.765Z,78.99
2022-08-21T19:43:23.122Z,78.96
2022-08-21T19:45:54.640Z,79.02
2022-08-21T19:48:26.570Z,78.99
2022-08-21T19:51:07.889Z,78.86
2022-08-21T19:53:44.613Z,78.95
2022-08-21T19:56:24.191Z,78.98
2022-08-21T19:58:54.459Z,78.95
2022-08-21T20:01:25.810Z,78.93
2022-08-21T20:03:57.169Z,79.03
2022-08-21T20:06:26.172Z,79.11
2022-08-21T20:08:55.346Z,79.14
2022-08-21T20:11:45.003Z,79.11
2022-08-21T20:14:20.329Z,79.13
2022-08-21T20:16:53.690Z,79.14
2022-08-21T20:20:25.226Z,79.16
2022-08-21T20:23:09.701Z,79.20
2022-08-21T20:25:40.703Z,79.24
2022-08-21T20:28:13.274Z,79.39
2022-08-21T20:30:48.417Z,79.51
2022-08-21T20:33:18.530Z,79.61
2022-08-21T20:35:50.362Z,79.62
2022-08-21T20:38:20.595Z,79.60
2022-08-21T20:40:51.799Z,79.64
2022-08-21T20:46:23.219Z,79.92
2022-08-21T20:48:51.584Z,80.03
2022-08-21T20:51:36.258Z,80.24
2022-08-21T20:54:16.470Z,80.35
2022-08-21T20:57:13.824Z,80.36
2022-08-21T20:59:52.211Z,80.27
2022-08-21T21:02:48.745Z,80.28
2022-08-21T21:05:51.477Z,80.33
2022-08-21T21:08:30.165Z,80.21
2022-08-21T21:11:21.686Z,80.39
2022-08-21T21:14:08.185Z,80.41
2022-08-21T21:16:51.727Z,80.43
2022-08-21T21:20:03.994Z,80.35
2022-08-21T21:22:42.001Z,80.31
2022-08-21T21:25:22.939Z,80.34
2022-08-21T21:28:01.393Z,80.26
2022-08-21T21:30:46.662Z,80.15
2022-08-21T21:33:30.596Z,80.06
2022-08-21T21:36:08.576Z,79.97
2022-08-21T21:38:51.882Z,79.90
2022-08-21T21:41:29.348Z,79.84
2022-08-21T21:44:03.028Z,79.79
2022-08-21T21:46:58.362Z,79.86
2022-08-21T21:50:01.906Z,79.88
2022-08-21T21:52:48.226Z,79.87
2022-08-21T21:55:59.466Z,79.91
2022-08-21T21:58:56.082Z,79.90
2022-08-21T22:01:47.087Z,79.85
2022-08-21T22:04:46.869Z,79.68
2022-08-21T22:07:32.121Z,79.53
2022-08-21T22:10:44.856Z,79.49
2022-08-21T22:13:39.512Z,79.38
2022-08-21T22:16:07.797Z,79.19
2022-08-21T22:19:00.700Z,79.16
2022-08-21T22:21:34.958Z,79.15
2022-08-21T22:24:16.889Z,79.12
2022-08-21T22:26:50.073Z,79.12
2022-08-21T22:29:22.598Z,78.92
2022-08-21T22:32:08.137Z,78.90
2022-08-21T22:34:36.009Z,79.12
2022-08-21T22:37:09.070Z,78.99
2022-08-21T22:39:46.077Z,78.86
2022-08-21T22:42:24.824Z,78.73
2022-08-21T22:44:57.351Z,78.63
2022-08-21T22:47:37.715Z,78.57
2022-08-21T22:50:19.924Z,78.61
2022-08-21T22:52:52.828Z,78.53
2022-08-21T22:55:46.542Z,78.45
2022-08-21T22:58:21.526Z,78.39
2022-08-21T23:00:58.349Z,78.37
2022-08-21T23:03:52.638Z,78.53
2022-08-21T23:06:56.329Z,78.73
2022-08-21T23:09:30.766Z,78.80
2022-08-21T23:12:14.152Z,78.88
2022-08-21T23:14:54.867Z,78.85
2022-08-21T23:17:45.531Z,78.82
2022-08-21T23:21:01.947Z,78.73
2022-08-21T23:23:35.456Z,78.77
2022-08-21T23:26:22.671Z,78.59
2022-08-21T23:29:24.946Z,78.39
2022-08-21T23:32:08.446Z,78.48
2022-08-21T23:34:57.722Z,78.33
2022-08-21T23:38:09.339Z,77.78
2022-08-21T23:40:51.071Z,77.66
2022-08-21T23:43:41.749Z,77.16
2022-08-21T23:46:16.338Z,77.21
2022-08-21T23:49:28.439Z,76.95
2022-08-21T23:52:19.937Z,76.86
2022-08-21T23:55:14.724Z,76.55
2022-08-21T23:58:13.312Z,76.46
